Iona Mcallister — WDD4840 — position and weather

sailwx.info

Track history (hours):
 
Tides and Currents Weather Stations Pressure Air Temp Water Temp Dewpoint Dewpoint Depression Visibility Wind Speed Wind Dir Waves Ship Positions

Iona Mcallister

Owner: McAllister Towing & Transportation Co. Inc., Staten Island, NY. More information available from US FCC via Universal Licensing System and Coast Guard Vessel Documentation Center.

Last reported at 2017-Aug-19 09:41 UTC. Time now 2017-Aug-19 16:43 UTC.
Position N 41°47' W 071°22'.

Length 36 m; draft 3 m.

Type: Towing. MMSI: 367149890.

Date/timePositionNaut miles runAvg speedWind from/ knotsBaromVisibWave heightAir tempDewpointWater temp
2017-Aug-19 09:41N 41°47' W 071°22'0 0.3
2017-Aug-19 09:30N 41°47' W 071°22'0 0.8
2017-Aug-19 09:00N 41°47' W 071°22'1 0.1
2017-Aug-18 20:10N 41°47' W 071°23'0 3.0
2017-Aug-18 20:00N 41°47' W 071°22'2 4.3
2017-Aug-18 19:25N 41°44' W 071°22'3 7.6
2017-Aug-18 19:00N 41°42' W 071°21'5 8.4
2017-Aug-18 18:21N 41°37' W 071°24'0 0.1
2017-Aug-18 11:00N 41°37' W 071°24'2 0.2
2017-Aug-18 03:39N 41°35' W 071°24'0 0.0
2017-Aug-17 22:58N 41°35' W 071°24'4 7.8
2017-Aug-17 22:30N 41°38' W 071°22'5 8.8
2017-Aug-17 21:59N 41°43' W 071°20'4 8.4
2017-Aug-17 21:30N 41°47' W 071°22'1 0.0
2017-Aug-17 03:27N 41°47' W 071°22'0 0.3
2017-Aug-17 02:59N 41°47' W 071°22'0 0.1
2017-Aug-17 02:30N 41°47' W 071°22'0 0.0
2017-Aug-17 02:00N 41°47' W 071°22'0 0.0
2017-Aug-17 01:29N 41°47' W 071°22'0 0.0
2017-Aug-17 01:00N 41°47' W 071°22'1 2.2
2017-Aug-17 00:30N 41°46' W 071°23'5 9.2
2017-Aug-17 00:00N 41°42' W 071°19'8 0.2
2017-Aug-15 13:53N 41°35' W 071°24'1 0.3
2017-Aug-15 10:30N 41°36' W 071°24'1 1.4
2017-Aug-15 10:00N 41°37' W 071°24'0 0.2
2017-Aug-15 07:48N 41°37' W 071°24'2 7.7
2017-Aug-15 07:31N 41°39' W 071°22'4 8.6
2017-Aug-15 07:00N 41°43' W 071°20'5 8.7
2017-Aug-15 06:27N 41°47' W 071°22'0 0.0
2017-Aug-14 07:55N 41°47' W 071°23'0 0.5
2017-Aug-14 07:30N 41°47' W 071°22'1 2.2
2017-Aug-14 06:50N 41°48' W 071°24'1 1.0
2017-Aug-14 06:01N 41°48' W 071°23'0 0.3
2017-Aug-14 04:38N 41°48' W 071°23'0 3.0
2017-Aug-14 04:30N 41°48' W 071°24'2 0.1
2017-Aug-13 10:38N 41°47' W 071°22'0 0.4
2017-Aug-13 10:29N 41°47' W 071°22'2 2.4
2017-Aug-13 09:50N 41°48' W 071°24'1 1.4
2017-Aug-13 09:07N 41°47' W 071°23'0 0.0
2017-Aug-12 10:36N 41°47' W 071°23'0 0.1
2017-Aug-12 06:50N 41°47' W 071°23'0 0.1
2017-Aug-12 00:11N 41°47' W 071°22'2 8.6
2017-Aug-12 00:00N 41°45' W 071°23'5 8.9
2017-Aug-11 23:29N 41°42' W 071°19'21 2.0
2017-Aug-11 12:59N 41°28' W 070°57'611.4
2017-Aug-11 12:30N 41°25' W 071°03'14 6.2
2017-Aug-11 10:15N 41°26' W 071°22'2 7.1
2017-Aug-11 10:00N 41°28' W 071°22'4 7.9
2017-Aug-11 09:30N 41°31' W 071°20'5 9.3
2017-Aug-11 09:00N 41°36' W 071°18'5 9.3
2017-Aug-11 08:30N 41°40' W 071°19'4 8.8
2017-Aug-11 08:00N 41°44' W 071°22'4 0.9
2017-Aug-11 03:36N 41°48' W 071°23'0 0.0
2017-Aug-11 02:53N 41°48' W 071°23'0 0.0
2017-Aug-10 14:24N 41°48' W 071°23'2 4.2
2017-Aug-10 14:00N 41°47' W 071°22'4 7.0
2017-Aug-10 13:30N 41°43' W 071°21'6 2.2
2017-Aug-10 10:39N 41°37' W 071°18'210.5
2017-Aug-10 10:30N 41°39' W 071°18'510.3
2017-Aug-10 10:00N 41°43' W 071°21'4 0.5
2017-Aug-10 02:24N 41°47' W 071°22'0 0.1
2017-Aug-10 02:00N 41°47' W 071°22'1 1.2
2017-Aug-10 01:30N 41°46' W 071°22'  
Track history (hours):
 
Tides and Currents Weather Stations Pressure Air Temp Water Temp Dewpoint Dewpoint Depression Visibility Wind Speed Wind Dir Waves Ship Positions

Iona Mcallister

Owner: McAllister Towing & Transportation Co. Inc., Staten Island, NY. More information available from US FCC via Universal Licensing System and Coast Guard Vessel Documentation Center.

Last reported at 2017-Aug-19 09:41 UTC. Time now 2017-Aug-19 16:43 UTC.
Position N 41°47' W 071°22'.

Length 36 m; draft 3 m.

Type: Towing. MMSI: 367149890.

Date/timePositionNaut miles runAvg speedWind from/ knotsBaromVisibWave heightAir tempDewpointWater temp
2017-Aug-19 09:41N 41°47' W 071°22'0 0.3
2017-Aug-19 09:30N 41°47' W 071°22'0 0.8
2017-Aug-19 09:00N 41°47' W 071°22'1 0.1
2017-Aug-18 20:10N 41°47' W 071°23'0 3.0
2017-Aug-18 20:00N 41°47' W 071°22'2 4.3
2017-Aug-18 19:25N 41°44' W 071°22'3 7.6
2017-Aug-18 19:00N 41°42' W 071°21'5 8.4
2017-Aug-18 18:21N 41°37' W 071°24'0 0.1
2017-Aug-18 11:00N 41°37' W 071°24'2 0.2
2017-Aug-18 03:39N 41°35' W 071°24'0 0.0
2017-Aug-17 22:58N 41°35' W 071°24'4 7.8
2017-Aug-17 22:30N 41°38' W 071°22'5 8.8
2017-Aug-17 21:59N 41°43' W 071°20'4 8.4
2017-Aug-17 21:30N 41°47' W 071°22'1 0.0
2017-Aug-17 03:27N 41°47' W 071°22'0 0.3
2017-Aug-17 02:59N 41°47' W 071°22'0 0.1
2017-Aug-17 02:30N 41°47' W 071°22'0 0.0
2017-Aug-17 02:00N 41°47' W 071°22'0 0.0
2017-Aug-17 01:29N 41°47' W 071°22'0 0.0
2017-Aug-17 01:00N 41°47' W 071°22'1 2.2
2017-Aug-17 00:30N 41°46' W 071°23'5 9.2
2017-Aug-17 00:00N 41°42' W 071°19'8 0.2
2017-Aug-15 13:53N 41°35' W 071°24'1 0.3
2017-Aug-15 10:30N 41°36' W 071°24'1 1.4
2017-Aug-15 10:00N 41°37' W 071°24'0 0.2
2017-Aug-15 07:48N 41°37' W 071°24'2 7.7
2017-Aug-15 07:31N 41°39' W 071°22'4 8.6
2017-Aug-15 07:00N 41°43' W 071°20'5 8.7
2017-Aug-15 06:27N 41°47' W 071°22'0 0.0
2017-Aug-14 07:55N 41°47' W 071°23'0 0.5
2017-Aug-14 07:30N 41°47' W 071°22'1 2.2
2017-Aug-14 06:50N 41°48' W 071°24'1 1.0
2017-Aug-14 06:01N 41°48' W 071°23'0 0.3
2017-Aug-14 04:38N 41°48' W 071°23'0 3.0
2017-Aug-14 04:30N 41°48' W 071°24'2 0.1
2017-Aug-13 10:38N 41°47' W 071°22'0 0.4
2017-Aug-13 10:29N 41°47' W 071°22'2 2.4
2017-Aug-13 09:50N 41°48' W 071°24'1 1.4
2017-Aug-13 09:07N 41°47' W 071°23'0 0.0
2017-Aug-12 10:36N 41°47' W 071°23'0 0.1
2017-Aug-12 06:50N 41°47' W 071°23'0 0.1
2017-Aug-12 00:11N 41°47' W 071°22'2 8.6
2017-Aug-12 00:00N 41°45' W 071°23'5 8.9
2017-Aug-11 23:29N 41°42' W 071°19'21 2.0
2017-Aug-11 12:59N 41°28' W 070°57'611.4
2017-Aug-11 12:30N 41°25' W 071°03'14 6.2
2017-Aug-11 10:15N 41°26' W 071°22'2 7.1
2017-Aug-11 10:00N 41°28' W 071°22'4 7.9
2017-Aug-11 09:30N 41°31' W 071°20'5 9.3
2017-Aug-11 09:00N 41°36' W 071°18'5 9.3
2017-Aug-11 08:30N 41°40' W 071°19'4 8.8
2017-Aug-11 08:00N 41°44' W 071°22'4 0.9
2017-Aug-11 03:36N 41°48' W 071°23'0 0.0
2017-Aug-11 02:53N 41°48' W 071°23'0 0.0
2017-Aug-10 14:24N 41°48' W 071°23'2 4.2
2017-Aug-10 14:00N 41°47' W 071°22'4 7.0
2017-Aug-10 13:30N 41°43' W 071°21'6 2.2
2017-Aug-10 10:39N 41°37' W 071°18'210.5
2017-Aug-10 10:30N 41°39' W 071°18'510.3
2017-Aug-10 10:00N 41°43' W 071°21'4 0.5
2017-Aug-10 02:24N 41°47' W 071°22'0 0.1
2017-Aug-10 02:00N 41°47' W 071°22'1 1.2
2017-Aug-10 01:30N 41°46' W 071°22'  

Dump ship's entire track history